Terminal Aerodrome Forecast
Issued by NWS Columbia, SC

Home | Current Version | Previous Version | Text Only | Print | Product List | Glossary On
Versions: 1 2 3 4 5 6 7 8 9 10 11 12 13 14 15 16 17 18 19 20 21 22 23 24 25 26 27 28 29 30 31 32 33 34 35 36 37 38 39 40 41 42 43 44 45 46 47 48 49 50
000
FTAK31 PAJN 211700
TAFAGS
TAF
PAGS 211730Z 2118/2218 33005KT 6SM -RA BR FEW006 SCT020 OVC040
     FM212300 VRB05KT 5SM -RA BR BKN015 OVC030 WS020/15045KT
     FM220300 14012G22KT 6SM -RA BR SCT010 OVC025 WS020/16040KT
     FM220700 14010KT 6SM -SHRA BR SCT015 OVC030
     FM221300 14007KT P6SM -SHRA SCT020 OVC040
      AMD NOT SKED=

USA.gov is the U.S. government's official web portal to all federal, state and local government web resources and services.